| time (UTC) | temp F | wind direction | speed knots | gust knots | rain 1hr in | rain 24hr in | rain mn in | humidity % | barometer mb |
| 20260904192022 | 100 | 171 | 0.0 | 3.5 | 0.00 | 0.04 | 0.00 | 24 | 1004.2 |
| 20260904185021 | 97 | 261 | 2.6 | 2.6 | 0.00 | 0.05 | 0.00 | 27 | 1005.0 |
| 20260904182019 | 95 | 263 | 2.6 | 2.6 | 0.00 | 0.07 | 0.00 | 31 | 1005.9 |
| 20260904175019 | 93 | 241 | 2.6 | 2.6 | 0.00 | 0.09 | 0.00 | 34 | 1006.7 |
| 20260904172017 | 91 | 276 | 2.6 | 2.6 | 0.00 | 0.10 | 0.00 | 36 | 1007.3 |
| 20260904165017 | 90 | 284 | 2.6 | 2.6 | 0.00 | 0.11 | 0.00 | 39 | 1007.7 |
| 20260904162015 | 88 | 271 | 3.5 | 3.5 | 0.00 | 0.12 | 0.00 | 41 | 1008.2 |
| 20260904155014 | 86 | 272 | 6.1 | 6.1 | 0.00 | 0.13 | 0.00 | 43 | 1008.4 |
| 20260904152013 | 84 | 241 | 7.0 | 7.0 | 0.00 | 0.14 | 0.00 | 45 | 1008.9 |
| 20260904145013 | 82 | 234 | 3.5 | 3.5 | 0.00 | 0.15 | 0.00 | 47 | 1009.1 |
| 20260904142011 | 79 | 247 | 1.7 | 1.7 | 0.00 | 0.15 | 0.00 | 51 | 1009.7 |
| 20260904135010 | 75 | 180 | 0.0 | 0.0 | 0.00 | 0.15 | 0.00 | 54 | 1010.2 |
| 20260904132010 | 72 | 267 | 0.0 | 0.0 | 0.00 | 0.15 | 0.00 | 59 | 1010.4 |
| 20260904125008 | 71 | 210 | 0.0 | 0.9 | 0.00 | 0.15 | 0.00 | 61 | 1010.4 |
| 20260904122007 | 70 | 28 | 0.0 | 0.0 | 0.00 | 0.15 | 0.00 | 62 | 1010.4 |
| 20260904115006 | 71 | 41 | 0.0 | 0.0 | 0.00 | 0.15 | 0.00 | 62 | 1010.0 |
| 20260904112005 | 72 | 248 | 2.6 | 2.6 | 0.00 | 0.15 | 0.00 | 60 | 1009.6 |
| 20260904105004 | 72 | 276 | 1.7 | 1.7 | 0.00 | 0.15 | 0.00 | 60 | 1009.5 |
| 20260904102003 | 73 | 258 | 0.9 | 0.9 | 0.00 | 0.15 | 0.00 | 60 | 1009.2 |
| 20260904095002 | 73 | 194 | 0.0 | 0.0 | 0.00 | 0.15 | 0.00 | 59 | 1009.0 |
| 20260904092002 | 74 | 204 | 0.0 | 0.9 | 0.00 | 0.15 | 0.00 | 57 | 1008.7 |
| 20260904085000 | 72 | 240 | 1.7 | 1.7 | 0.00 | 0.15 | 0.00 | 62 | 1009.1 |
| 20260904081959 | 75 | 234 | 0.0 | 0.0 | 0.00 | 0.15 | 0.00 | 53 | 1008.6 |
| 20260904074958 | 75 | 281 | 0.0 | 0.0 | 0.00 | 0.15 | 0.00 | 53 | 1008.7 |
| 20260904071957 | 74 | 360 | 0.0 | 0.0 | 0.00 | 0.15 | 0.00 | 55 | 1009.0 |
| 20260904064956 | 77 | 360 | 0.0 | 0.0 | 0.00 | 0.15 | 0.00 | 52 | 1008.4 |
| 20260904061955 | 80 | 228 | 0.0 | 0.0 | 0.00 | 0.15 | 0.00 | 48 | 1007.8 |
| 20260904054954 | 82 | 290 | 1.7 | 1.7 | 0.00 | 0.15 | 0.00 | 45 | 1007.2 |
| 20260904051953 | 80 | 282 | 0.9 | 0.9 | 0.00 | 0.15 | 0.00 | 49 | 1007.5 |
| 20260904044952 | 82 | 316 | 0.9 | 0.9 | 0.00 | 0.15 | 0.15 | 47 | 1007.2 |
| 20260904041951 | 83 | 286 | 2.6 | 2.6 | 0.00 | 0.15 | 0.15 | 45 | 1007.1 |
| 20260904034950 | 84 | 246 | 0.9 | 0.9 | 0.00 | 0.15 | 0.15 | 41 | 1006.7 |
| 20260904031949 | 84 | 360 | 0.0 | 0.0 | 0.00 | 0.15 | 0.15 | 40 | 1006.3 |
| 20260904024948 | 84 | 360 | 0.0 | 0.0 | 0.00 | 0.15 | 0.15 | 41 | 1005.9 |
| 20260904021947 | 84 | 360 | 0.0 | 0.0 | 0.00 | 0.15 | 0.15 | 39 | 1005.6 |
| 20260904014946 | 86 | 360 | 0.0 | 0.0 | 0.00 | 0.15 | 0.15 | 39 | 1004.8 |
| 20260904011945 | 88 | 334 | 1.7 | 1.7 | 0.00 | 0.15 | 0.15 | 37 | 1004.6 |
| 20260904004944 | 90 | 335 | 4.3 | 4.3 | 0.00 | 0.15 | 0.15 | 34 | 1004.2 |
| 20260904001943 | 91 | 352 | 3.5 | 4.3 | 0.00 | 0.15 | 0.15 | 33 | 1003.9 |
| 20260903234942 | 95 | 262 | 2.6 | 2.6 | 0.00 | 0.15 | 0.15 | 29 | 1003.1 |
| 20260903231941 | 96 | 272 | 4.3 | 6.1 | 0.00 | 0.16 | 0.15 | 30 | 1002.7 |
| 20260903224941 | 101 | 186 | 2.6 | 7.0 | 0.01 | 0.16 | 0.15 | 21 | 1001.3 |
| 20260903221939 | 102 | 185 | 1.7 | 6.1 | 0.01 | 0.15 | 0.14 | 21 | 1001.1 |
| 20260903214938 | 101 | 183 | 2.6 | 2.6 | 0.01 | 0.15 | 0.14 | 23 | 1001.5 |
| 20260903211937 | 102 | 174 | 1.7 | 1.7 | 0.00 | 0.14 | 0.13 | 22 | 1001.8 |
| 20260903204936 | 101 | 145 | 0.9 | 2.6 | 0.00 | 0.15 | 0.12 | 22 | 1002.1 |
| 20260903201935 | 101 | 195 | 1.7 | 2.6 | 0.01 | 0.15 | 0.12 | 23 | 1002.7 |
| 20260903194935 | 101 | 237 | 3.5 | 7.0 | 0.01 | 0.15 | 0.11 | 23 | 1003.1 |